Time;durP1;ratioP1;P1;durP2;ratioP2;P2;SDS_P1;SDS_P2;PMS_P1;PMS_P2;Temp;Humidity;BMP_temperature;BMP_pressure;BME280_temperature;BME280_humidity;BME280_pressure;Samples;Min_cycle;Max_cycle;Signal;HPM_P1;HPM_P2
2023/09/16 00:01:03;;;;;;;9.55;6.43;;;14.80;99.90;;;;;;5082078;28;20088;-82
2023/09/16 00:03:29;;;;;;;9.95;6.22;;;14.80;99.90;;;;;;5081935;28;20029;-81
2023/09/16 00:05:56;;;;;;;10.55;6.90;;;14.80;99.90;;;;;;5082100;28;20027;-82
2023/09/16 00:08:22;;;;;;;12.40;7.22;;;14.80;99.90;;;;;;5081709;28;20051;-81
2023/09/16 00:10:48;;;;;;;10.20;6.82;;;14.70;99.90;;;;;;5082050;28;20483;-82
2023/09/16 00:13:14;;;;;;;9.38;6.53;;;14.70;99.90;;;;;;5082276;28;20024;-83
2023/09/16 00:15:39;;;;;;;10.65;7.20;;;14.70;99.90;;;;;;5081870;28;20055;-83
2023/09/16 00:18:05;;;;;;;10.25;6.97;;;14.70;99.90;;;;;;5081917;28;20025;-82
2023/09/16 00:20:30;;;;;;;12.50;7.10;;;14.60;99.90;;;;;;5082464;28;20028;-81
2023/09/16 00:22:57;;;;;;;9.32;6.30;;;14.60;99.90;;;;;;5082840;28;21049;-81
2023/09/16 00:25:22;;;;;;;13.07;7.07;;;14.60;99.90;;;;;;5081507;28;20024;-83
2023/09/16 00:27:48;;;;;;;10.82;7.25;;;14.50;99.90;;;;;;5081477;28;20033;-82
2023/09/16 00:30:14;;;;;;;9.30;7.18;;;14.50;99.90;;;;;;5083076;28;20020;-82
2023/09/16 00:32:40;;;;;;;11.77;7.70;;;14.50;99.90;;;;;;5081795;28;20031;-82
2023/09/16 00:35:06;;;;;;;11.48;6.75;;;14.50;99.90;;;;;;5081494;28;20048;-84
2023/09/16 00:37:32;;;;;;;13.25;7.38;;;14.50;99.90;;;;;;5081537;28;20033;-81
2023/09/16 00:39:57;;;;;;;9.93;7.40;;;14.50;99.90;;;;;;5081794;28;20107;-84
2023/09/16 00:42:23;;;;;;;9.10;6.93;;;14.50;99.90;;;;;;5081475;28;20028;-82
2023/09/16 00:44:49;;;;;;;9.73;7.35;;;14.40;99.90;;;;;;5081115;28;20025;-84
2023/09/16 00:47:15;;;;;;;10.45;6.85;;;14.50;99.90;;;;;;5081395;28;20047;-83
2023/09/16 00:49:41;;;;;;;10.32;7.47;;;14.50;99.90;;;;;;5081534;28;20017;-84
2023/09/16 00:52:07;;;;;;;13.45;7.35;;;14.50;99.90;;;;;;5081425;28;20028;-85
2023/09/16 00:54:34;;;;;;;8.90;6.88;;;14.40;99.90;;;;;;5081541;28;20035;-83
2023/09/16 00:57:01;;;;;;;10.70;7.22;;;14.40;99.90;;;;;;5084393;28;20036;-83
2023/09/16 00:59:32;;;;;;;11.43;6.95;;;14.40;99.90;;;;;;5088955;28;20024;-82
2023/09/16 01:01:58;;;;;;;10.52;6.80;;;14.40;99.90;;;;;;5088142;28;20032;-82
2023/09/16 01:04:24;;;;;;;12.07;7.07;;;14.40;99.90;;;;;;5084136;28;20475;-83
2023/09/16 01:06:51;;;;;;;11.25;7.03;;;14.40;99.90;;;;;;5080953;28;20043;-83
2023/09/16 01:09:17;;;;;;;12.38;7.57;;;14.40;99.90;;;;;;5080996;28;20531;-84
2023/09/16 01:11:46;;;;;;;11.13;7.35;;;14.40;99.90;;;;;;5081205;28;20401;-83
2023/09/16 01:14:12;;;;;;;9.98;7.53;;;14.40;99.90;;;;;;5080777;28;20063;-84
2023/09/16 01:16:48;;;;;;;11.10;7.30;;;14.40;99.90;;;;;;5080848;28;20029;-84
2023/09/16 01:19:23;;;;;;;16.33;7.32;;;14.30;99.90;;;;;;5082291;28;20021;-84
2023/09/16 01:21:49;;;;;;;10.63;7.50;;;14.30;99.90;;;;;;5080643;28;20032;-84
2023/09/16 01:24:24;;;;;;;11.90;7.45;;;14.30;99.90;;;;;;5082220;28;20021;-85
2023/09/16 01:26:50;;;;;;;10.45;7.50;;;14.20;99.90;;;;;;5080132;28;20047;-84
2023/09/16 01:29:18;;;;;;;10.90;7.45;;;14.20;99.90;;;;;;5080503;28;20028;-84
2023/09/16 01:31:45;;;;;;;10.35;7.53;;;14.20;99.90;;;;;;5080820;28;20091;-83
2023/09/16 01:34:25;;;;;;;10.65;7.07;;;14.20;99.90;;;;;;5080505;28;20031;-84
2023/09/16 01:36:54;;;;;;;8.77;6.90;;;14.20;99.90;;;;;;5079801;28;20045;-82
2023/09/16 01:39:23;;;;;;;11.27;7.75;;;14.20;99.90;;;;;;5079190;28;20049;-81
2023/09/16 01:41:54;;;;;;;11.65;7.38;;;14.20;99.90;;;;;;5080994;28;20013;-85
2023/09/16 01:44:20;;;;;;;11.85;7.55;;;14.20;99.90;;;;;;5080197;28;20067;-82
2023/09/16 01:46:45;;;;;;;13.93;8.07;;;14.10;99.90;;;;;;5079929;28;20040;-82
2023/09/16 01:49:11;;;;;;;11.52;7.90;;;14.10;99.90;;;;;;5080282;28;20016;-82
2023/09/16 01:51:36;;;;;;;13.13;7.50;;;14.10;99.90;;;;;;5081206;28;20473;-83
2023/09/16 01:54:02;;;;;;;9.82;7.22;;;14.10;99.90;;;;;;5080040;28;20477;-83
2023/09/16 01:56:28;;;;;;;13.38;7.90;;;14.10;99.90;;;;;;5080496;28;20072;-83
2023/09/16 01:58:53;;;;;;;11.15;7.97;;;14.00;99.90;;;;;;5079983;28;21115;-83
2023/09/16 02:01:19;;;;;;;13.40;8.10;;;14.00;99.90;;;;;;5081536;28;20084;-81
2023/09/16 02:03:45;;;;;;;11.25;8.13;;;14.00;99.90;;;;;;5079908;28;20044;-83
2023/09/16 02:06:10;;;;;;;10.40;7.65;;;14.00;99.90;;;;;;5080537;28;20562;-83
2023/09/16 02:08:36;;;;;;;12.50;8.25;;;14.00;99.90;;;;;;5081087;28;20044;-82
2023/09/16 02:11:02;;;;;;;11.68;8.10;;;13.90;99.90;;;;;;5080502;28;20048;-83
2023/09/16 02:13:27;;;;;;;11.38;7.53;;;14.00;99.90;;;;;;5080574;28;20021;-82
2023/09/16 02:15:53;;;;;;;12.32;8.43;;;13.90;99.90;;;;;;5080315;28;20073;-85
2023/09/16 02:18:19;;;;;;;11.95;7.60;;;13.90;99.90;;;;;;5079917;28;21061;-84
2023/09/16 02:20:45;;;;;;;16.40;8.68;;;13.90;99.90;;;;;;5081399;28;20028;-84
2023/09/16 02:23:10;;;;;;;14.27;8.18;;;13.90;99.90;;;;;;5084159;28;20092;-83
2023/09/16 02:25:36;;;;;;;14.57;8.35;;;13.90;99.90;;;;;;5082444;28;20036;-82
2023/09/16 02:28:02;;;;;;;12.05;7.53;;;13.80;99.90;;;;;;5083082;28;20056;-83
2023/09/16 02:30:27;;;;;;;11.23;8.25;;;13.80;99.90;;;;;;5084001;28;20020;-83
2023/09/16 02:32:53;;;;;;;13.48;8.43;;;13.80;99.90;;;;;;5083982;28;20035;-82
2023/09/16 02:35:19;;;;;;;15.88;8.48;;;13.80;99.90;;;;;;5084327;28;20052;-86
2023/09/16 02:37:44;;;;;;;13.00;8.20;;;13.90;99.90;;;;;;5084685;28;20056;-84
2023/09/16 02:40:10;;;;;;;10.93;8.07;;;13.80;99.90;;;;;;5083513;28;20025;-84
2023/09/16 02:42:36;;;;;;;12.77;8.02;;;13.80;99.90;;;;;;5084563;28;20013;-83
2023/09/16 02:45:02;;;;;;;14.02;8.38;;;13.80;99.90;;;;;;5083614;28;20028;-84
2023/09/16 02:47:28;;;;;;;11.50;8.57;;;13.80;99.90;;;;;;5082760;28;20033;-83
2023/09/16 02:49:53;;;;;;;13.57;8.18;;;13.80;99.90;;;;;;5083252;28;20024;-83
2023/09/16 02:52:20;;;;;;;10.60;8.10;;;13.80;99.90;;;;;;5083263;28;20025;-82
2023/09/16 02:54:46;;;;;;;11.05;7.93;;;13.70;99.90;;;;;;5082465;28;20020;-83
2023/09/16 02:57:12;;;;;;;11.25;8.35;;;13.70;99.90;;;;;;5083593;28;20050;-83
2023/09/16 02:59:37;;;;;;;10.93;8.30;;;13.70;99.90;;;;;;5082748;28;20023;-84
2023/09/16 03:02:03;;;;;;;10.10;7.90;;;13.60;99.90;;;;;;5084309;28;20080;-83
2023/09/16 03:04:29;;;;;;;12.55;8.57;;;13.60;99.90;;;;;;5082671;28;20028;-81
2023/09/16 03:06:55;;;;;;;10.43;7.95;;;13.60;99.90;;;;;;5082207;28;20063;-82
2023/09/16 03:09:20;;;;;;;12.65;8.65;;;13.60;99.90;;;;;;5081204;28;20044;-82
2023/09/16 03:11:46;;;;;;;12.65;8.23;;;13.60;99.90;;;;;;5082231;28;20028;-83
2023/09/16 03:14:12;;;;;;;15.68;8.50;;;13.50;99.90;;;;;;5082015;28;20043;-83
2023/09/16 03:16:38;;;;;;;11.63;8.27;;;13.50;99.90;;;;;;5082481;28;20016;-85
2023/09/16 03:19:03;;;;;;;11.95;8.23;;;13.60;99.90;;;;;;5082972;28;20060;-82
2023/09/16 03:21:29;;;;;;;12.90;8.20;;;13.50;99.90;;;;;;5082789;28;20027;-84
2023/09/16 03:23:55;;;;;;;10.88;8.25;;;13.50;99.90;;;;;;5082232;28;20035;-81
2023/09/16 03:26:21;;;;;;;11.63;8.20;;;13.50;99.90;;;;;;5082201;28;20032;-81
2023/09/16 03:28:47;;;;;;;12.88;8.77;;;13.50;99.90;;;;;;5082186;28;20105;-82
2023/09/16 03:31:13;;;;;;;11.15;8.23;;;13.50;99.90;;;;;;5081204;28;20028;-81
2023/09/16 03:33:39;;;;;;;14.98;8.52;;;13.50;99.90;;;;;;5082368;28;20021;-82
2023/09/16 03:36:06;;;;;;;11.32;8.55;;;13.50;99.90;;;;;;5081980;28;20083;-81
2023/09/16 03:38:33;;;;;;;9.77;7.68;;;13.40;99.90;;;;;;5081643;28;20107;-83
2023/09/16 03:41:00;;;;;;;15.07;9.10;;;13.40;99.90;;;;;;5082427;28;20040;-80
2023/09/16 03:43:27;;;;;;;11.00;8.50;;;13.40;99.90;;;;;;5081700;28;20089;-83
2023/09/16 03:46:05;;;;;;;13.90;8.77;;;13.40;99.90;;;;;;5082263;28;20059;-84
2023/09/16 03:48:30;;;;;;;11.15;8.10;;;13.50;99.90;;;;;;5082211;28;20028;-83
2023/09/16 03:50:56;;;;;;;14.05;8.15;;;13.30;99.90;;;;;;5082078;28;20068;-81
2023/09/16 03:53:25;;;;;;;11.10;8.27;;;13.40;99.90;;;;;;5081712;28;20032;-81
2023/09/16 03:55:51;;;;;;;15.52;8.38;;;13.30;99.90;;;;;;5081670;28;20028;-80
2023/09/16 03:58:17;;;;;;;11.82;8.65;;;13.30;99.90;;;;;;5082975;28;20036;-82
2023/09/16 04:00:43;;;;;;;14.60;8.68;;;13.30;99.90;;;;;;5081385;28;20032;-81
2023/09/16 04:03:09;;;;;;;11.20;8.40;;;13.30;99.90;;;;;;5081640;28;20021;-82
2023/09/16 04:05:41;;;;;;;11.48;8.35;;;13.30;99.90;;;;;;5082968;28;20029;-81
2023/09/16 04:08:08;;;;;;;12.40;8.80;;;13.30;99.90;;;;;;5081216;28;20068;-82
2023/09/16 04:10:34;;;;;;;13.75;9.45;;;13.30;99.90;;;;;;5081016;28;20048;-81
2023/09/16 04:13:00;;;;;;;12.55;9.05;;;13.30;99.90;;;;;;5082159;28;20088;-81
2023/09/16 04:15:25;;;;;;;12.68;9.07;;;13.30;99.90;;;;;;5081909;28;20040;-79
2023/09/16 04:17:51;;;;;;;14.40;9.23;;;13.20;99.90;;;;;;5081380;28;20090;-80
2023/09/16 04:20:19;;;;;;;13.82;8.73;;;13.20;99.90;;;;;;5081470;28;20092;-80
2023/09/16 04:22:45;;;;;;;11.65;8.57;;;13.30;99.90;;;;;;5081247;28;20017;-81
2023/09/16 04:25:11;;;;;;;14.88;9.43;;;13.20;99.90;;;;;;5081332;28;20016;-79
2023/09/16 04:27:36;;;;;;;13.38;9.00;;;13.20;99.90;;;;;;5082370;28;20031;-80
2023/09/16 04:30:03;;;;;;;12.98;9.38;;;13.20;99.90;;;;;;5082851;28;20489;-83
2023/09/16 04:32:29;;;;;;;13.27;8.90;;;13.10;99.90;;;;;;5082222;28;20032;-82
2023/09/16 04:34:59;;;;;;;13.48;9.43;;;13.20;99.90;;;;;;5081803;28;20074;-80
2023/09/16 04:37:25;;;;;;;11.80;8.30;;;13.10;99.90;;;;;;5080249;28;20036;-80
2023/09/16 04:39:50;;;;;;;12.65;8.18;;;13.10;99.90;;;;;;5081167;28;20039;-81
2023/09/16 04:42:16;;;;;;;12.93;9.15;;;13.10;99.90;;;;;;5080676;28;20044;-82
2023/09/16 04:44:41;;;;;;;12.70;8.73;;;13.10;99.90;;;;;;5080634;28;20085;-80
2023/09/16 04:47:07;;;;;;;13.68;9.10;;;13.10;99.90;;;;;;5080617;28;20025;-83
2023/09/16 04:49:33;;;;;;;11.23;7.90;;;13.10;99.90;;;;;;5081193;28;20089;-81
2023/09/16 04:51:59;;;;;;;14.48;9.35;;;13.10;99.90;;;;;;5081245;28;20378;-80
2023/09/16 04:54:26;;;;;;;14.20;9.15;;;13.10;99.90;;;;;;5082979;28;20059;-83
2023/09/16 04:56:51;;;;;;;12.82;9.13;;;13.10;99.90;;;;;;5080823;28;20078;-84
2023/09/16 04:59:17;;;;;;;13.70;9.60;;;13.10;99.90;;;;;;5081164;28;20017;-82
2023/09/16 05:01:44;;;;;;;14.25;9.25;;;13.10;99.90;;;;;;5081524;28;20370;-84
2023/09/16 05:04:10;;;;;;;15.23;10.02;;;13.10;99.90;;;;;;5080746;28;20477;-84
2023/09/16 05:06:35;;;;;;;15.30;8.98;;;13.00;99.90;;;;;;5081465;28;20024;-83
2023/09/16 05:09:01;;;;;;;11.48;8.80;;;13.00;99.90;;;;;;5081336;28;20025;-82
2023/09/16 05:11:27;;;;;;;14.82;9.52;;;13.00;99.90;;;;;;5080991;28;20119;-79
2023/09/16 05:13:52;;;;;;;14.55;9.57;;;13.00;99.90;;;;;;5082364;28;20039;-83
2023/09/16 05:16:18;;;;;;;14.15;9.55;;;13.00;99.90;;;;;;5079455;28;20051;-79
2023/09/16 05:18:44;;;;;;;14.85;9.57;;;13.00;99.90;;;;;;5081550;28;20456;-77
2023/09/16 05:21:10;;;;;;;13.23;9.32;;;13.00;99.90;;;;;;5080904;28;20043;-77
2023/09/16 05:23:37;;;;;;;11.95;8.98;;;13.00;99.90;;;;;;5080812;28;20469;-76
2023/09/16 05:26:04;;;;;;;12.77;8.70;;;13.00;99.90;;;;;;5080473;28;20020;-78
2023/09/16 05:28:30;;;;;;;15.30;9.23;;;13.00;99.90;;;;;;5079794;28;20108;-79
2023/09/16 05:30:58;;;;;;;17.38;9.80;;;13.00;99.90;;;;;;5078687;28;20083;-76
2023/09/16 05:33:25;;;;;;;15.25;9.80;;;13.00;99.90;;;;;;5081862;28;20387;-78
2023/09/16 05:35:51;;;;;;;13.65;9.35;;;13.10;99.90;;;;;;5080998;28;20174;-77
2023/09/16 05:38:16;;;;;;;13.27;9.30;;;13.10;99.90;;;;;;5077474;28;20043;-78
2023/09/16 05:40:42;;;;;;;16.10;10.27;;;13.10;99.90;;;;;;5080299;28;20104;-76
2023/09/16 05:43:08;;;;;;;13.60;9.70;;;13.10;99.90;;;;;;5077775;28;20052;-77
2023/09/16 05:45:34;;;;;;;15.27;9.45;;;13.10;99.90;;;;;;5079162;28;20020;-76
2023/09/16 05:48:02;;;;;;;13.63;9.57;;;13.10;99.90;;;;;;5079264;28;20104;-77
2023/09/16 05:50:29;;;;;;;15.15;9.93;;;13.10;99.90;;;;;;5079395;28;20063;-80
2023/09/16 05:52:55;;;;;;;14.27;9.02;;;13.10;99.90;;;;;;5078433;28;20096;-78
2023/09/16 05:55:20;;;;;;;14.07;9.48;;;13.10;99.90;;;;;;5079992;28;20101;-77
2023/09/16 05:57:46;;;;;;;14.98;9.40;;;13.20;99.90;;;;;;5079639;28;20059;-78
2023/09/16 06:00:12;;;;;;;15.80;9.85;;;13.20;99.90;;;;;;5081535;28;20633;-77
2023/09/16 06:02:39;;;;;;;14.25;9.98;;;13.20;99.90;;;;;;5080290;28;20021;-80
2023/09/16 06:05:09;;;;;;;14.63;10.07;;;13.20;99.90;;;;;;5080750;28;20036;-80
2023/09/16 06:07:41;;;;;;;15.88;9.88;;;13.30;99.90;;;;;;5078274;28;20088;-80
2023/09/16 06:10:08;;;;;;;14.52;10.07;;;13.30;99.90;;;;;;5078161;28;20039;-77
2023/09/16 06:12:34;;;;;;;14.05;10.20;;;13.40;99.90;;;;;;5079281;28;20032;-80
2023/09/16 06:14:59;;;;;;;14.18;9.98;;;13.40;99.90;;;;;;5078695;28;20021;-80
2023/09/16 06:17:25;;;;;;;15.95;10.05;;;13.50;99.90;;;;;;5079963;28;20037;-80
2023/09/16 06:19:55;;;;;;;19.73;11.07;;;13.50;99.90;;;;;;5079057;28;20040;-78
2023/09/16 06:22:24;;;;;;;15.68;9.95;;;13.50;99.90;;;;;;5076954;28;20032;-78
2023/09/16 06:24:51;;;;;;;14.07;9.48;;;13.60;99.90;;;;;;5078937;28;20035;-77
2023/09/16 06:27:17;;;;;;;14.98;9.35;;;13.60;99.90;;;;;;5078913;28;20040;-78
2023/09/16 06:29:44;;;;;;;12.90;8.77;;;13.70;99.90;;;;;;5077781;28;20139;-79
2023/09/16 06:32:10;;;;;;;15.27;9.68;;;13.70;99.90;;;;;;5078150;28;20097;-79
2023/09/16 06:34:35;;;;;;;15.07;9.45;;;13.70;99.90;;;;;;5077724;28;20102;-79
2023/09/16 06:37:03;;;;;;;14.85;10.13;;;13.70;99.90;;;;;;5080609;28;20079;-79
2023/09/16 06:39:28;;;;;;;17.45;9.80;;;13.80;99.90;;;;;;5081661;28;20407;-77
2023/09/16 06:41:54;;;;;;;12.15;9.30;;;13.80;99.90;;;;;;5080964;28;20661;-78
2023/09/16 06:44:19;;;;;;;13.98;9.38;;;13.80;99.90;;;;;;5079992;28;20028;-77
2023/09/16 06:46:45;;;;;;;14.07;8.90;;;13.90;99.90;;;;;;5078446;28;20021;-78
2023/09/16 06:49:10;;;;;;;12.73;9.07;;;13.80;99.90;;;;;;5079444;28;20481;-79
2023/09/16 06:51:36;;;;;;;12.60;9.05;;;13.90;99.90;;;;;;5081023;28;20020;-81
2023/09/16 06:54:02;;;;;;;14.23;9.13;;;13.90;99.90;;;;;;5080065;28;20070;-78
2023/09/16 06:56:29;;;;;;;13.82;9.43;;;13.90;99.90;;;;;;5079198;28;20492;-78
2023/09/16 06:58:56;;;;;;;13.02;9.65;;;14.00;99.90;;;;;;5079419;28;20125;-76
2023/09/16 07:01:28;;;;;;;13.80;9.25;;;14.00;99.90;;;;;;5078410;28;20029;-78
2023/09/16 07:03:53;;;;;;;14.55;9.60;;;14.00;99.90;;;;;;5078890;28;20088;-79
2023/09/16 07:06:19;;;;;;;13.15;9.50;;;14.10;99.90;;;;;;5079607;28;20019;-77
2023/09/16 07:08:44;;;;;;;17.05;9.43;;;14.10;99.90;;;;;;5081472;28;20032;-77
2023/09/16 07:11:12;;;;;;;12.65;8.60;;;14.10;99.90;;;;;;5082021;28;20044;-78
2023/09/16 07:13:38;;;;;;;14.52;8.93;;;14.10;99.90;;;;;;5083971;28;20020;-81
2023/09/16 07:16:04;;;;;;;13.82;9.00;;;14.20;99.90;;;;;;5082843;28;20030;-78
2023/09/16 07:18:31;;;;;;;17.42;9.23;;;14.20;99.90;;;;;;5084177;28;20100;-77
2023/09/16 07:20:56;;;;;;;16.75;9.85;;;14.30;99.90;;;;;;5084015;28;20442;-79
2023/09/16 07:23:22;;;;;;;11.88;8.95;;;14.30;99.90;;;;;;5080319;28;20028;-77
2023/09/16 07:25:59;;;;;;;13.35;9.38;;;14.30;99.90;;;;;;5081647;28;20453;-78
2023/09/16 07:28:25;;;;;;;10.88;9.07;;;14.30;99.90;;;;;;5082332;28;20028;-79
2023/09/16 07:30:51;;;;;;;11.82;8.90;;;14.40;99.90;;;;;;5083588;28;20033;-79
2023/09/16 07:33:17;;;;;;;13.75;8.95;;;14.40;99.90;;;;;;5082611;28;20151;-78
2023/09/16 07:35:43;;;;;;;13.02;9.43;;;14.50;99.90;;;;;;5083755;28;20036;-77
2023/09/16 07:38:11;;;;;;;16.33;9.73;;;14.50;99.90;;;;;;5079105;28;21270;-78
2023/09/16 07:40:38;;;;;;;14.02;9.93;;;14.50;99.90;;;;;;5081037;28;20029;-78
2023/09/16 07:43:11;;;;;;;19.33;11.05;;;14.50;99.90;;;;;;5082520;28;20466;-81
2023/09/16 07:45:38;;;;;;;12.93;9.27;;;14.60;99.90;;;;;;5082480;28;20020;-79
2023/09/16 07:48:07;;;;;;;14.13;9.77;;;14.60;99.90;;;;;;5082709;28;20352;-79
2023/09/16 07:50:33;;;;;;;15.00;9.98;;;14.60;99.90;;;;;;5081847;28;20489;-78
2023/09/16 07:53:00;;;;;;;13.82;9.65;;;14.70;99.90;;;;;;5077591;28;20020;-78
2023/09/16 07:55:26;;;;;;;19.85;10.15;;;14.80;99.90;;;;;;5070576;28;20707;-79
2023/09/16 07:57:51;;;;;;;15.48;10.48;;;14.80;99.90;;;;;;5080681;28;20040;-75
2023/09/16 08:00:17;;;;;;;12.85;10.07;;;14.90;99.90;;;;;;5076104;28;20020;-78
2023/09/16 08:02:43;;;;;;;13.57;9.95;;;14.90;99.90;;;;;;5076094;28;20187;-77
2023/09/16 08:05:08;;;;;;;16.05;10.68;;;14.90;99.90;;;;;;5076319;28;21087;-79
2023/09/16 08:07:37;;;;;;;13.38;10.23;;;15.00;99.90;;;;;;5082625;28;20024;-81
2023/09/16 08:10:03;;;;;;;14.88;10.65;;;15.00;99.90;;;;;;5080604;28;20033;-77
2023/09/16 08:12:29;;;;;;;16.23;10.85;;;15.00;99.90;;;;;;5077348;28;20033;-79
2023/09/16 08:14:54;;;;;;;14.43;10.25;;;15.10;99.90;;;;;;5082882;28;20224;-79
2023/09/16 08:17:20;;;;;;;13.48;10.32;;;15.10;99.90;;;;;;5080872;28;20537;-78
2023/09/16 08:19:46;;;;;;;13.85;10.68;;;15.20;99.90;;;;;;5078922;28;20032;-78
2023/09/16 08:22:11;;;;;;;18.15;10.90;;;15.20;99.90;;;;;;5079893;28;20021;-77
2023/09/16 08:24:37;;;;;;;15.77;11.05;;;15.30;99.90;;;;;;5080818;28;20040;-75
2023/09/16 08:27:02;;;;;;;15.50;10.52;;;15.30;99.90;;;;;;5080831;28;20460;-78
2023/09/16 08:29:28;;;;;;;16.25;11.07;;;15.40;99.90;;;;;;5082007;28;20028;-78
2023/09/16 08:31:54;;;;;;;15.57;9.57;;;15.40;99.90;;;;;;5080922;28;20036;-79
2023/09/16 08:34:19;;;;;;;14.00;10.50;;;15.40;99.90;;;;;;5082017;28;20024;-79
2023/09/16 08:36:45;;;;;;;16.15;10.45;;;15.50;99.90;;;;;;5078971;28;20025;-78
2023/09/16 08:39:10;;;;;;;17.85;10.63;;;15.50;99.90;;;;;;5079073;28;20028;-78
2023/09/16 08:42:21;;;;;;;14.00;9.95;;;15.70;99.90;;;;;;5080371;28;20073;-80
2023/09/16 08:44:52;;;;;;;18.23;10.23;;;15.60;99.90;;;;;;5073583;28;20051;-77
2023/09/16 08:47:42;;;;;;;17.13;10.45;;;15.70;99.90;;;;;;5081135;28;20063;-80
2023/09/16 08:50:09;;;;;;;16.92;10.85;;;15.70;99.90;;;;;;5077339;28;20043;-78
2023/09/16 08:52:51;;;;;;;19.38;10.20;;;15.80;99.90;;;;;;5081732;28;20017;-78
2023/09/16 08:55:18;;;;;;;18.10;9.82;;;15.80;99.90;;;;;;5078493;28;20036;-82
2023/09/16 08:57:50;;;;;;;18.45;10.23;;;15.90;99.90;;;;;;5079661;28;20032;-80
2023/09/16 09:00:16;;;;;;;17.75;10.13;;;15.90;99.90;;;;;;5078570;28;20025;-78
2023/09/16 09:02:43;;;;;;;16.08;9.95;;;15.90;99.90;;;;;;5076270;28;20025;-79
2023/09/16 09:05:11;;;;;;;20.67;11.00;;;16.00;99.90;;;;;;5078045;28;20043;-78
2023/09/16 09:07:39;;;;;;;14.55;11.38;;;16.00;99.90;;;;;;5079977;28;20038;-77
2023/09/16 09:10:06;;;;;;;14.82;10.52;;;16.10;99.90;;;;;;5081091;28;21720;-83
2023/09/16 09:12:38;;;;;;;15.27;10.43;;;16.10;99.90;;;;;;5080658;28;20051;-78
2023/09/16 09:15:04;;;;;;;19.38;10.98;;;16.20;99.90;;;;;;5080921;28;20024;-78
2023/09/16 09:17:43;;;;;;;16.13;10.32;;;16.30;99.90;;;;;;5079442;28;20048;-78
2023/09/16 09:20:13;;;;;;;15.98;10.40;;;16.30;99.90;;;;;;5077616;28;20028;-80
2023/09/16 09:22:40;;;;;;;14.63;10.25;;;16.30;99.90;;;;;;5076150;28;20025;-79
2023/09/16 09:25:07;;;;;;;16.05;10.68;;;16.40;99.90;;;;;;5080886;28;20370;-77
2023/09/16 09:27:33;;;;;;;13.95;9.98;;;16.40;99.90;;;;;;5080011;28;20025;-78
2023/09/16 09:29:58;;;;;;;13.02;9.85;;;16.50;99.90;;;;;;5082309;28;20046;-78
2023/09/16 09:32:33;;;;;;;14.23;10.07;;;16.60;99.90;;;;;;5080227;28;20025;-76
2023/09/16 09:35:05;;;;;;;12.65;9.35;;;16.70;99.90;;;;;;5076527;28;20079;-79
2023/09/16 09:37:31;;;;;;;17.42;9.98;;;16.80;99.90;;;;;;5077972;28;20040;-78
2023/09/16 09:40:23;;;;;;;13.13;9.88;;;16.90;99.90;;;;;;5078520;28;20028;-80
2023/09/16 09:42:51;;;;;;;14.20;9.95;;;16.90;99.90;;;;;;5075406;28;20055;-77
2023/09/16 09:45:20;;;;;;;14.60;9.15;;;17.00;99.90;;;;;;5076127;28;20362;-80
2023/09/16 09:47:47;;;;;;;14.40;9.27;;;17.10;99.90;;;;;;5079483;28;20021;-77
2023/09/16 09:50:15;;;;;;;12.13;9.13;;;17.10;99.90;;;;;;5080189;28;20534;-79
2023/09/16 09:52:49;;;;;;;13.02;9.00;;;17.20;99.90;;;;;;5080326;28;20469;-77
2023/09/16 09:55:19;;;;;;;13.93;9.35;;;17.30;99.90;;;;;;5080661;28;20179;-78
2023/09/16 09:57:46;;;;;;;16.98;9.73;;;17.40;99.90;;;;;;5081278;28;20566;-81
2023/09/16 10:00:17;;;;;;;14.13;8.88;;;17.40;99.90;;;;;;5080936;28;20029;-76
2023/09/16 10:02:44;;;;;;;12.20;8.95;;;17.50;99.90;;;;;;5079949;28;20017;-74
2023/09/16 10:05:15;;;;;;;15.82;9.23;;;17.60;99.90;;;;;;5079870;28;20029;-78
2023/09/16 10:07:42;;;;;;;13.27;8.85;;;17.70;99.90;;;;;;5075736;28;20063;-77
2023/09/16 10:10:30;;;;;;;14.30;9.30;;;17.80;99.90;;;;;;5080045;28;20025;-77
2023/09/16 10:12:57;;;;;;;10.02;8.20;;;17.90;99.90;;;;;;5080266;28;20025;-76
2023/09/16 10:15:28;;;;;;;11.90;8.52;;;18.00;99.90;;;;;;5079917;28;20021;-74
2023/09/16 10:17:55;;;;;;;13.90;8.20;;;18.20;99.90;;;;;;5077481;28;20117;-75
2023/09/16 10:20:21;;;;;;;11.75;8.20;;;18.30;99.90;;;;;;5081034;28;20621;-77
2023/09/16 10:22:47;;;;;;;12.13;8.65;;;18.50;99.90;;;;;;5079699;28;20025;-76
2023/09/16 10:25:12;;;;;;;10.75;7.85;;;18.70;99.90;;;;;;5079785;28;20037;-77
2023/09/16 10:27:48;;;;;;;14.25;8.45;;;18.90;99.90;;;;;;5076571;28;20029;-76
2023/09/16 10:30:15;;;;;;;10.02;7.45;;;19.10;99.90;;;;;;5080516;28;20370;-74
2023/09/16 10:32:41;;;;;;;10.27;7.63;;;19.20;99.90;;;;;;5076896;28;20096;-77
2023/09/16 10:35:08;;;;;;;10.65;8.02;;;19.40;99.90;;;;;;5078877;28;20064;-76
2023/09/16 10:37:35;;;;;;;12.02;8.10;;;19.50;99.90;;;;;;5079390;28;20237;-76
2023/09/16 10:40:04;;;;;;;9.52;7.65;;;19.60;99.90;;;;;;5079141;28;20024;-76
2023/09/16 10:42:33;;;;;;;13.63;8.35;;;19.70;99.90;;;;;;5080825;28;20362;-73
2023/09/16 10:45:02;;;;;;;12.85;7.85;;;19.80;99.90;;;;;;5083566;28;20084;-77
2023/09/16 10:47:28;;;;;;;11.13;7.60;;;19.90;99.90;;;;;;5084376;28;20016;-79
2023/09/16 10:49:54;;;;;;;11.77;7.10;;;20.10;99.90;;;;;;5080383;28;20064;-76
2023/09/16 10:52:29;;;;;;;14.32;7.82;;;20.30;99.90;;;;;;5080079;28;20133;-79
2023/09/16 10:55:05;;;;;;;12.70;7.43;;;20.50;99.90;;;;;;5097852;28;20028;-77
2023/09/16 10:57:39;;;;;;;15.77;8.10;;;20.80;99.90;;;;;;5082718;28;20063;-78
2023/09/16 11:00:10;;;;;;;10.25;7.97;;;21.00;99.90;;;;;;5084233;28;20066;-77
2023/09/16 11:02:59;;;;;;;9.10;7.40;;;21.20;99.90;;;;;;5082717;28;20028;-78
2023/09/16 11:05:26;;;;;;;8.27;6.93;;;21.40;99.90;;;;;;5083428;28;20021;-77
2023/09/16 11:07:55;;;;;;;11.90;7.97;;;21.60;99.90;;;;;;5082773;28;20123;-77
2023/09/16 11:10:23;;;;;;;11.85;8.68;;;21.80;99.90;;;;;;5084596;28;20190;-74
2023/09/16 11:12:50;;;;;;;15.90;8.30;;;21.90;99.90;;;;;;5084209;28;20025;-77
2023/09/16 11:15:17;;;;;;;9.90;7.85;;;22.00;99.90;;;;;;5082560;28;20029;-77
2023/09/16 11:17:43;;;;;;;9.35;6.88;;;22.10;99.90;;;;;;5084258;28;20051;-78
2023/09/16 11:20:13;;;;;;;9.13;7.25;;;22.20;99.90;;;;;;5084586;28;20870;-82
2023/09/16 11:22:46;;;;;;;9.57;7.03;;;22.30;99.90;;;;;;5084173;28;20067;-77
2023/09/16 11:25:13;;;;;;;9.35;7.00;;;22.40;99.90;;;;;;5084204;28;20521;-77
2023/09/16 11:27:39;;;;;;;10.57;6.00;;;22.60;99.90;;;;;;5082670;28;20032;-77
2023/09/16 11:30:12;;;;;;;7.07;5.55;;;22.70;99.90;;;;;;5082964;28;20024;-76
2023/09/16 11:32:40;;;;;;;8.70;5.55;;;22.90;99.90;;;;;;5084239;28;20027;-81
2023/09/16 11:35:06;;;;;;;5.97;5.07;;;23.10;99.90;;;;;;5082309;28;20083;-78
2023/09/16 11:37:33;;;;;;;10.15;5.53;;;23.30;99.90;;;;;;5083989;28;20068;-73
2023/09/16 11:40:02;;;;;;;6.57;4.43;;;23.40;99.90;;;;;;5079834;28;20028;-73
2023/09/16 11:42:30;;;;;;;6.13;4.88;;;23.40;99.90;;;;;;5081534;28;20143;-75
2023/09/16 11:44:55;;;;;;;5.28;4.10;;;23.50;99.90;;;;;;5077866;28;20036;-78
2023/09/16 11:47:22;;;;;;;6.93;4.13;;;23.70;99.90;;;;;;5081384;28;20060;-71
2023/09/16 11:49:49;;;;;;;7.10;4.40;;;23.80;99.90;;;;;;5077508;28;20029;-73
2023/09/16 11:52:15;;;;;;;5.45;4.07;;;23.90;99.90;;;;;;5080715;28;20021;-75
2023/09/16 11:54:47;;;;;;;7.28;4.40;;;24.00;99.90;;;;;;5080687;28;20032;-70
2023/09/16 11:57:13;;;;;;;6.03;4.40;;;24.10;99.90;;;;;;5079297;28;20044;-74
2023/09/16 11:59:38;;;;;;;6.05;4.28;;;24.10;99.90;;;;;;5080411;28;20024;-78
2023/09/16 12:02:05;;;;;;;4.65;3.78;;;24.20;99.90;;;;;;5082509;28;20031;-78
2023/09/16 12:04:34;;;;;;;4.95;3.83;;;24.20;99.90;;;;;;5081622;28;20020;-75
2023/09/16 12:07:00;;;;;;;4.95;3.90;;;24.30;99.90;;;;;;5080658;28;20098;-75
2023/09/16 12:09:27;;;;;;;5.45;3.70;;;24.30;99.90;;;;;;5083198;28;20028;-79
2023/09/16 12:11:53;;;;;;;5.22;4.10;;;24.40;99.90;;;;;;5075405;28;20055;-74
2023/09/16 12:14:20;;;;;;;4.47;4.00;;;24.60;99.90;;;;;;5072654;28;20453;-73
2023/09/16 12:16:52;;;;;;;6.80;4.47;;;24.70;99.90;;;;;;5077975;28;20043;-71
2023/09/16 12:19:18;;;;;;;6.13;3.72;;;24.70;99.90;;;;;;5079782;28;20035;-74
2023/09/16 12:21:47;;;;;;;6.78;3.92;;;24.70;99.90;;;;;;5076376;28;20025;-74
2023/09/16 12:24:21;;;;;;;6.70;3.83;;;24.70;99.90;;;;;;5073199;28;20063;-76
2023/09/16 12:26:48;;;;;;;4.37;3.77;;;24.90;99.90;;;;;;5078158;28;21472;-74
2023/09/16 12:29:14;;;;;;;4.82;3.97;;;25.00;99.90;;;;;;5080152;28;20052;-73
2023/09/16 12:31:40;;;;;;;5.40;4.10;;;25.00;99.90;;;;;;5082056;28;20027;-76
2023/09/16 12:34:06;;;;;;;6.18;3.53;;;25.20;99.90;;;;;;5080465;28;20031;-72
2023/09/16 12:36:32;;;;;;;4.90;3.50;;;25.30;99.90;;;;;;5081562;28;20052;-76
2023/09/16 12:39:00;;;;;;;6.25;3.60;;;25.30;99.90;;;;;;5082904;28;20074;-69